sensor_id;sensor_type;location;lat;lon;timestamp;P1;durP1;ratioP1;P2;durP2;ratioP2
47958;SDS011;33718;50.910;-1.514;2023-12-29T00:00:10;37.40;;;5.13;;
47958;SDS011;33718;50.910;-1.514;2023-12-29T00:02:12;26.27;;;3.72;;
47958;SDS011;33718;50.910;-1.514;2023-12-29T00:04:13;43.53;;;7.13;;
47958;SDS011;33718;50.910;-1.514;2023-12-29T00:06:15;31.02;;;6.05;;
47958;SDS011;33718;50.910;-1.514;2023-12-29T00:08:17;21.63;;;3.70;;
47958;SDS011;33718;50.910;-1.514;2023-12-29T00:10:18;30.02;;;4.25;;
47958;SDS011;33718;50.910;-1.514;2023-12-29T00:12:20;39.53;;;5.38;;
47958;SDS011;33718;50.910;-1.514;2023-12-29T00:14:22;32.97;;;4.38;;
47958;SDS011;33718;50.910;-1.514;2023-12-29T00:16:42;40.47;;;7.35;;
47958;SDS011;33718;50.910;-1.514;2023-12-29T00:18:45;27.77;;;4.32;;
47958;SDS011;33718;50.910;-1.514;2023-12-29T00:20:47;36.88;;;4.63;;
47958;SDS011;33718;50.910;-1.514;2023-12-29T00:22:49;19.08;;;2.63;;
47958;SDS011;33718;50.910;-1.514;2023-12-29T00:24:50;29.52;;;4.03;;
47958;SDS011;33718;50.910;-1.514;2023-12-29T00:26:52;32.22;;;4.85;;
47958;SDS011;33718;50.910;-1.514;2023-12-29T00:28:54;39.50;;;6.28;;
47958;SDS011;33718;50.910;-1.514;2023-12-29T00:30:55;33.90;;;5.22;;
47958;SDS011;33718;50.910;-1.514;2023-12-29T00:33:03;34.53;;;4.97;;
47958;SDS011;33718;50.910;-1.514;2023-12-29T00:35:05;32.25;;;4.90;;
47958;SDS011;33718;50.910;-1.514;2023-12-29T00:37:06;38.85;;;7.07;;
47958;SDS011;33718;50.910;-1.514;2023-12-29T00:39:10;28.73;;;4.25;;
47958;SDS011;33718;50.910;-1.514;2023-12-29T00:41:11;30.95;;;4.38;;
47958;SDS011;33718;50.910;-1.514;2023-12-29T00:43:13;39.70;;;5.97;;
47958;SDS011;33718;50.910;-1.514;2023-12-29T00:45:14;29.80;;;4.13;;
47958;SDS011;33718;50.910;-1.514;2023-12-29T00:47:16;28.00;;;3.78;;
47958;SDS011;33718;50.910;-1.514;2023-12-29T00:49:39;39.22;;;5.03;;
47958;SDS011;33718;50.910;-1.514;2023-12-29T00:52:01;33.13;;;4.53;;
47958;SDS011;33718;50.910;-1.514;2023-12-29T00:54:04;36.42;;;4.70;;
47958;SDS011;33718;50.910;-1.514;2023-12-29T00:56:11;41.13;;;5.72;;
47958;SDS011;33718;50.910;-1.514;2023-12-29T00:58:13;38.40;;;5.15;;
47958;SDS011;33718;50.910;-1.514;2023-12-29T01:00:33;47.92;;;5.53;;
47958;SDS011;33718;50.910;-1.514;2023-12-29T01:02:35;32.35;;;5.78;;
47958;SDS011;33718;50.910;-1.514;2023-12-29T01:04:37;32.97;;;4.25;;
47958;SDS011;33718;50.910;-1.514;2023-12-29T01:06:39;34.85;;;6.57;;
47958;SDS011;33718;50.910;-1.514;2023-12-29T01:08:41;38.10;;;6.15;;
47958;SDS011;33718;50.910;-1.514;2023-12-29T01:10:42;40.47;;;6.68;;
47958;SDS011;33718;50.910;-1.514;2023-12-29T01:12:44;39.30;;;4.85;;
47958;SDS011;33718;50.910;-1.514;2023-12-29T01:14:46;36.55;;;4.93;;
47958;SDS011;33718;50.910;-1.514;2023-12-29T01:16:47;39.22;;;4.78;;
47958;SDS011;33718;50.910;-1.514;2023-12-29T01:18:49;34.15;;;5.07;;
47958;SDS011;33718;50.910;-1.514;2023-12-29T01:20:51;38.10;;;7.53;;
47958;SDS011;33718;50.910;-1.514;2023-12-29T01:22:52;42.58;;;7.53;;
47958;SDS011;33718;50.910;-1.514;2023-12-29T01:24:54;34.95;;;4.35;;
47958;SDS011;33718;50.910;-1.514;2023-12-29T01:26:55;30.65;;;4.18;;
47958;SDS011;33718;50.910;-1.514;2023-12-29T01:28:57;31.30;;;4.38;;
47958;SDS011;33718;50.910;-1.514;2023-12-29T01:30:59;38.08;;;4.40;;
47958;SDS011;33718;50.910;-1.514;2023-12-29T01:33:00;29.75;;;4.18;;
47958;SDS011;33718;50.910;-1.514;2023-12-29T01:35:02;27.23;;;4.25;;
47958;SDS011;33718;50.910;-1.514;2023-12-29T01:37:04;37.00;;;5.05;;
47958;SDS011;33718;50.910;-1.514;2023-12-29T01:39:06;21.70;;;4.18;;
47958;SDS011;33718;50.910;-1.514;2023-12-29T01:41:07;37.40;;;5.43;;
47958;SDS011;33718;50.910;-1.514;2023-12-29T01:43:08;35.10;;;3.83;;
47958;SDS011;33718;50.910;-1.514;2023-12-29T01:45:20;34.22;;;4.07;;
47958;SDS011;33718;50.910;-1.514;2023-12-29T01:47:22;30.67;;;3.80;;
47958;SDS011;33718;50.910;-1.514;2023-12-29T01:49:24;27.77;;;4.30;;
47958;SDS011;33718;50.910;-1.514;2023-12-29T01:51:26;35.78;;;4.05;;
47958;SDS011;33718;50.910;-1.514;2023-12-29T01:53:28;35.28;;;4.95;;
47958;SDS011;33718;50.910;-1.514;2023-12-29T01:55:43;27.33;;;5.68;;
47958;SDS011;33718;50.910;-1.514;2023-12-29T01:57:45;34.28;;;5.85;;
47958;SDS011;33718;50.910;-1.514;2023-12-29T01:59:46;30.95;;;2.95;;
47958;SDS011;33718;50.910;-1.514;2023-12-29T02:01:50;30.33;;;5.03;;
47958;SDS011;33718;50.910;-1.514;2023-12-29T02:03:51;39.95;;;6.13;;
47958;SDS011;33718;50.910;-1.514;2023-12-29T02:05:54;36.65;;;3.72;;
47958;SDS011;33718;50.910;-1.514;2023-12-29T02:08:15;32.00;;;3.83;;
47958;SDS011;33718;50.910;-1.514;2023-12-29T02:10:19;31.67;;;4.88;;
47958;SDS011;33718;50.910;-1.514;2023-12-29T02:12:23;28.85;;;4.13;;
47958;SDS011;33718;50.910;-1.514;2023-12-29T02:14:44;38.75;;;5.45;;
47958;SDS011;33718;50.910;-1.514;2023-12-29T02:17:22;31.80;;;4.18;;
47958;SDS011;33718;50.910;-1.514;2023-12-29T02:19:46;27.88;;;3.05;;
47958;SDS011;33718;50.910;-1.514;2023-12-29T02:21:59;40.95;;;7.07;;
47958;SDS011;33718;50.910;-1.514;2023-12-29T02:24:09;30.92;;;4.05;;
47958;SDS011;33718;50.910;-1.514;2023-12-29T02:26:35;37.33;;;5.25;;
47958;SDS011;33718;50.910;-1.514;2023-12-29T02:28:41;29.60;;;4.03;;
47958;SDS011;33718;50.910;-1.514;2023-12-29T02:31:19;41.40;;;4.68;;
47958;SDS011;33718;50.910;-1.514;2023-12-29T02:33:28;29.20;;;3.45;;
47958;SDS011;33718;50.910;-1.514;2023-12-29T02:35:39;41.10;;;5.60;;
47958;SDS011;33718;50.910;-1.514;2023-12-29T02:37:52;26.48;;;4.75;;
47958;SDS011;33718;50.910;-1.514;2023-12-29T02:40:05;35.95;;;4.03;;
47958;SDS011;33718;50.910;-1.514;2023-12-29T02:42:13;33.42;;;5.82;;
47958;SDS011;33718;50.910;-1.514;2023-12-29T02:44:42;33.17;;;4.78;;
47958;SDS011;33718;50.910;-1.514;2023-12-29T02:46:53;35.58;;;4.35;;
47958;SDS011;33718;50.910;-1.514;2023-12-29T02:49:22;39.50;;;4.65;;
47958;SDS011;33718;50.910;-1.514;2023-12-29T02:51:46;31.40;;;5.68;;
47958;SDS011;33718;50.910;-1.514;2023-12-29T02:54:13;33.75;;;5.53;;
47958;SDS011;33718;50.910;-1.514;2023-12-29T02:56:21;35.05;;;5.43;;
47958;SDS011;33718;50.910;-1.514;2023-12-29T02:58:23;40.00;;;5.32;;
47958;SDS011;33718;50.910;-1.514;2023-12-29T03:00:43;37.10;;;4.13;;
47958;SDS011;33718;50.910;-1.514;2023-12-29T03:02:44;36.05;;;4.20;;
47958;SDS011;33718;50.910;-1.514;2023-12-29T03:04:47;41.50;;;5.30;;
47958;SDS011;33718;50.910;-1.514;2023-12-29T03:06:48;33.35;;;4.95;;
47958;SDS011;33718;50.910;-1.514;2023-12-29T03:08:50;34.95;;;4.43;;
47958;SDS011;33718;50.910;-1.514;2023-12-29T03:10:51;34.22;;;4.60;;
47958;SDS011;33718;50.910;-1.514;2023-12-29T03:12:53;30.40;;;3.97;;
47958;SDS011;33718;50.910;-1.514;2023-12-29T03:14:54;42.45;;;5.55;;
47958;SDS011;33718;50.910;-1.514;2023-12-29T03:16:56;31.48;;;4.43;;
47958;SDS011;33718;50.910;-1.514;2023-12-29T03:19:16;44.53;;;4.95;;
47958;SDS011;33718;50.910;-1.514;2023-12-29T03:21:36;26.77;;;4.22;;
47958;SDS011;33718;50.910;-1.514;2023-12-29T03:23:38;32.58;;;4.40;;
47958;SDS011;33718;50.910;-1.514;2023-12-29T03:25:39;40.25;;;3.50;;
47958;SDS011;33718;50.910;-1.514;2023-12-29T03:27:41;27.00;;;4.32;;
47958;SDS011;33718;50.910;-1.514;2023-12-29T03:29:43;34.30;;;3.97;;
47958;SDS011;33718;50.910;-1.514;2023-12-29T03:31:45;46.90;;;5.97;;
47958;SDS011;33718;50.910;-1.514;2023-12-29T03:33:47;40.80;;;4.50;;
47958;SDS011;33718;50.910;-1.514;2023-12-29T03:35:49;33.03;;;5.05;;
47958;SDS011;33718;50.910;-1.514;2023-12-29T03:37:51;35.08;;;4.35;;
47958;SDS011;33718;50.910;-1.514;2023-12-29T03:39:52;42.00;;;6.32;;
47958;SDS011;33718;50.910;-1.514;2023-12-29T03:42:12;21.98;;;3.65;;
47958;SDS011;33718;50.910;-1.514;2023-12-29T03:44:14;26.17;;;4.13;;
47958;SDS011;33718;50.910;-1.514;2023-12-29T03:46:17;28.38;;;4.10;;
47958;SDS011;33718;50.910;-1.514;2023-12-29T03:48:19;34.65;;;5.60;;
47958;SDS011;33718;50.910;-1.514;2023-12-29T03:50:20;31.73;;;4.65;;
47958;SDS011;33718;50.910;-1.514;2023-12-29T03:52:22;37.53;;;4.68;;
47958;SDS011;33718;50.910;-1.514;2023-12-29T03:54:23;38.50;;;4.85;;
47958;SDS011;33718;50.910;-1.514;2023-12-29T03:56:25;21.05;;;2.92;;
47958;SDS011;33718;50.910;-1.514;2023-12-29T03:58:26;25.63;;;3.22;;
47958;SDS011;33718;50.910;-1.514;2023-12-29T04:00:28;18.35;;;3.45;;
47958;SDS011;33718;50.910;-1.514;2023-12-29T04:02:30;29.80;;;3.55;;
47958;SDS011;33718;50.910;-1.514;2023-12-29T04:04:31;30.38;;;4.05;;
47958;SDS011;33718;50.910;-1.514;2023-12-29T04:06:33;29.17;;;3.60;;
47958;SDS011;33718;50.910;-1.514;2023-12-29T04:08:35;20.58;;;3.22;;
47958;SDS011;33718;50.910;-1.514;2023-12-29T04:10:55;23.00;;;2.88;;
47958;SDS011;33718;50.910;-1.514;2023-12-29T04:12:57;13.02;;;2.20;;
47958;SDS011;33718;50.910;-1.514;2023-12-29T04:14:59;15.40;;;2.22;;
47958;SDS011;33718;50.910;-1.514;2023-12-29T04:17:00;22.83;;;2.78;;
47958;SDS011;33718;50.910;-1.514;2023-12-29T04:19:04;16.40;;;2.25;;
47958;SDS011;33718;50.910;-1.514;2023-12-29T04:21:07;15.43;;;2.92;;
47958;SDS011;33718;50.910;-1.514;2023-12-29T04:23:10;18.17;;;1.98;;
47958;SDS011;33718;50.910;-1.514;2023-12-29T04:25:13;10.65;;;1.83;;
47958;SDS011;33718;50.910;-1.514;2023-12-29T04:27:15;17.73;;;2.92;;
47958;SDS011;33718;50.910;-1.514;2023-12-29T04:29:16;17.83;;;2.70;;
47958;SDS011;33718;50.910;-1.514;2023-12-29T04:31:18;17.25;;;2.15;;
47958;SDS011;33718;50.910;-1.514;2023-12-29T04:33:19;9.18;;;1.13;;
47958;SDS011;33718;50.910;-1.514;2023-12-29T04:35:39;12.32;;;1.50;;
47958;SDS011;33718;50.910;-1.514;2023-12-29T04:37:59;20.27;;;2.35;;
47958;SDS011;33718;50.910;-1.514;2023-12-29T04:40:20;16.95;;;2.30;;
47958;SDS011;33718;50.910;-1.514;2023-12-29T04:42:40;9.93;;;1.92;;
47958;SDS011;33718;50.910;-1.514;2023-12-29T04:44:42;9.93;;;2.47;;
47958;SDS011;33718;50.910;-1.514;2023-12-29T04:46:44;10.40;;;1.45;;
47958;SDS011;33718;50.910;-1.514;2023-12-29T04:48:45;10.20;;;1.60;;
47958;SDS011;33718;50.910;-1.514;2023-12-29T04:51:05;9.43;;;1.30;;
47958;SDS011;33718;50.910;-1.514;2023-12-29T04:53:07;9.13;;;1.10;;
47958;SDS011;33718;50.910;-1.514;2023-12-29T04:55:08;4.25;;;0.95;;
47958;SDS011;33718;50.910;-1.514;2023-12-29T04:57:10;7.53;;;1.17;;
47958;SDS011;33718;50.910;-1.514;2023-12-29T04:59:30;12.15;;;2.13;;
47958;SDS011;33718;50.910;-1.514;2023-12-29T05:01:32;6.13;;;2.20;;
47958;SDS011;33718;50.910;-1.514;2023-12-29T05:03:33;5.93;;;0.80;;
47958;SDS011;33718;50.910;-1.514;2023-12-29T05:05:35;8.98;;;1.27;;
47958;SDS011;33718;50.910;-1.514;2023-12-29T05:07:37;5.25;;;0.70;;
47958;SDS011;33718;50.910;-1.514;2023-12-29T05:09:38;8.38;;;1.13;;
47958;SDS011;33718;50.910;-1.514;2023-12-29T05:11:40;14.40;;;1.52;;
47958;SDS011;33718;50.910;-1.514;2023-12-29T05:14:00;4.25;;;0.80;;
47958;SDS011;33718;50.910;-1.514;2023-12-29T05:16:02;9.90;;;1.13;;
47958;SDS011;33718;50.910;-1.514;2023-12-29T05:18:23;10.43;;;1.48;;
47958;SDS011;33718;50.910;-1.514;2023-12-29T05:20:27;6.10;;;1.10;;
47958;SDS011;33718;50.910;-1.514;2023-12-29T05:22:37;3.85;;;0.90;;
47958;SDS011;33718;50.910;-1.514;2023-12-29T05:24:50;6.75;;;1.15;;
47958;SDS011;33718;50.910;-1.514;2023-12-29T05:27:05;10.70;;;0.90;;
47958;SDS011;33718;50.910;-1.514;2023-12-29T05:29:18;12.23;;;0.70;;
47958;SDS011;33718;50.910;-1.514;2023-12-29T05:31:32;10.30;;;1.20;;
47958;SDS011;33718;50.910;-1.514;2023-12-29T05:34:03;9.75;;;1.10;;
47958;SDS011;33718;50.910;-1.514;2023-12-29T05:36:16;6.20;;;0.90;;
47958;SDS011;33718;50.910;-1.514;2023-12-29T05:38:27;5.47;;;2.78;;
47958;SDS011;33718;50.910;-1.514;2023-12-29T05:40:39;12.00;;;1.20;;
47958;SDS011;33718;50.910;-1.514;2023-12-29T05:42:50;11.68;;;1.35;;
47958;SDS011;33718;50.910;-1.514;2023-12-29T05:45:02;14.77;;;1.90;;
47958;SDS011;33718;50.910;-1.514;2023-12-29T05:47:12;11.40;;;1.00;;
47958;SDS011;33718;50.910;-1.514;2023-12-29T05:49:26;16.17;;;1.58;;
47958;SDS011;33718;50.910;-1.514;2023-12-29T05:51:56;13.32;;;2.10;;
47958;SDS011;33718;50.910;-1.514;2023-12-29T05:54:10;10.18;;;1.23;;
47958;SDS011;33718;50.910;-1.514;2023-12-29T05:56:20;16.90;;;1.95;;
47958;SDS011;33718;50.910;-1.514;2023-12-29T05:58:33;6.50;;;1.35;;
47958;SDS011;33718;50.910;-1.514;2023-12-29T06:00:44;18.48;;;1.67;;
47958;SDS011;33718;50.910;-1.514;2023-12-29T06:02:55;9.35;;;1.02;;
47958;SDS011;33718;50.910;-1.514;2023-12-29T06:05:17;13.90;;;1.50;;
47958;SDS011;33718;50.910;-1.514;2023-12-29T06:07:18;10.60;;;1.17;;
47958;SDS011;33718;50.910;-1.514;2023-12-29T06:09:20;7.93;;;1.67;;
47958;SDS011;33718;50.910;-1.514;2023-12-29T06:11:22;18.42;;;1.23;;
47958;SDS011;33718;50.910;-1.514;2023-12-29T06:13:23;10.05;;;1.50;;
47958;SDS011;33718;50.910;-1.514;2023-12-29T06:15:25;13.13;;;1.88;;
47958;SDS011;33718;50.910;-1.514;2023-12-29T06:17:26;10.75;;;2.17;;
47958;SDS011;33718;50.910;-1.514;2023-12-29T06:19:28;19.85;;;1.98;;
47958;SDS011;33718;50.910;-1.514;2023-12-29T06:21:29;8.93;;;1.50;;
47958;SDS011;33718;50.910;-1.514;2023-12-29T06:23:50;12.25;;;1.45;;
47958;SDS011;33718;50.910;-1.514;2023-12-29T06:25:51;17.27;;;1.77;;
47958;SDS011;33718;50.910;-1.514;2023-12-29T06:27:53;12.60;;;1.10;;
47958;SDS011;33718;50.910;-1.514;2023-12-29T06:30:13;18.38;;;1.92;;
47958;SDS011;33718;50.910;-1.514;2023-12-29T06:32:15;11.32;;;1.55;;
47958;SDS011;33718;50.910;-1.514;2023-12-29T06:34:16;20.80;;;1.88;;
47958;SDS011;33718;50.910;-1.514;2023-12-29T06:36:18;18.25;;;2.33;;
47958;SDS011;33718;50.910;-1.514;2023-12-29T06:38:19;15.85;;;2.15;;
47958;SDS011;33718;50.910;-1.514;2023-12-29T06:40:21;23.05;;;2.75;;
47958;SDS011;33718;50.910;-1.514;2023-12-29T06:42:22;17.48;;;2.22;;
47958;SDS011;33718;50.910;-1.514;2023-12-29T06:44:24;19.48;;;1.33;;
47958;SDS011;33718;50.910;-1.514;2023-12-29T06:46:26;17.48;;;1.75;;
47958;SDS011;33718;50.910;-1.514;2023-12-29T06:48:27;21.40;;;2.63;;
47958;SDS011;33718;50.910;-1.514;2023-12-29T06:50:29;18.63;;;3.70;;
47958;SDS011;33718;50.910;-1.514;2023-12-29T06:52:31;11.77;;;1.42;;
47958;SDS011;33718;50.910;-1.514;2023-12-29T06:54:35;20.83;;;1.75;;
47958;SDS011;33718;50.910;-1.514;2023-12-29T06:56:37;19.63;;;2.05;;
47958;SDS011;33718;50.910;-1.514;2023-12-29T06:58:39;16.33;;;2.92;;
47958;SDS011;33718;50.910;-1.514;2023-12-29T07:00:40;18.15;;;1.85;;
47958;SDS011;33718;50.910;-1.514;2023-12-29T07:02:44;21.58;;;2.30;;
47958;SDS011;33718;50.910;-1.514;2023-12-29T07:04:46;11.70;;;2.03;;
47958;SDS011;33718;50.910;-1.514;2023-12-29T07:06:47;14.60;;;1.70;;
47958;SDS011;33718;50.910;-1.514;2023-12-29T07:09:08;14.32;;;1.80;;
47958;SDS011;33718;50.910;-1.514;2023-12-29T07:11:10;20.63;;;2.38;;
47958;SDS011;33718;50.910;-1.514;2023-12-29T07:13:12;22.67;;;1.92;;
47958;SDS011;33718;50.910;-1.514;2023-12-29T07:15:14;12.68;;;2.60;;
47958;SDS011;33718;50.910;-1.514;2023-12-29T07:17:34;10.13;;;1.50;;
47958;SDS011;33718;50.910;-1.514;2023-12-29T07:19:36;20.13;;;2.85;;
47958;SDS011;33718;50.910;-1.514;2023-12-29T07:21:59;23.38;;;3.22;;
47958;SDS011;33718;50.910;-1.514;2023-12-29T07:24:01;12.18;;;2.00;;
47958;SDS011;33718;50.910;-1.514;2023-12-29T07:26:02;19.67;;;5.90;;
47958;SDS011;33718;50.910;-1.514;2023-12-29T07:28:04;20.92;;;2.45;;
47958;SDS011;33718;50.910;-1.514;2023-12-29T07:30:06;17.65;;;1.92;;
47958;SDS011;33718;50.910;-1.514;2023-12-29T07:32:07;13.45;;;2.78;;
47958;SDS011;33718;50.910;-1.514;2023-12-29T07:34:28;17.52;;;2.05;;
47958;SDS011;33718;50.910;-1.514;2023-12-29T07:38:52;22.30;;;1.85;;
47958;SDS011;33718;50.910;-1.514;2023-12-29T07:40:54;20.88;;;2.50;;
47958;SDS011;33718;50.910;-1.514;2023-12-29T07:42:55;25.38;;;4.05;;
47958;SDS011;33718;50.910;-1.514;2023-12-29T07:44:57;32.10;;;3.55;;
47958;SDS011;33718;50.910;-1.514;2023-12-29T07:46:58;21.35;;;2.70;;
47958;SDS011;33718;50.910;-1.514;2023-12-29T07:49:00;14.93;;;2.08;;
47958;SDS011;33718;50.910;-1.514;2023-12-29T07:51:04;19.00;;;2.35;;
47958;SDS011;33718;50.910;-1.514;2023-12-29T07:53:06;20.98;;;3.15;;
47958;SDS011;33718;50.910;-1.514;2023-12-29T07:55:08;25.17;;;2.22;;
47958;SDS011;33718;50.910;-1.514;2023-12-29T07:57:09;22.20;;;2.35;;
47958;SDS011;33718;50.910;-1.514;2023-12-29T07:59:11;21.60;;;2.78;;
47958;SDS011;33718;50.910;-1.514;2023-12-29T08:01:12;22.48;;;2.28;;
47958;SDS011;33718;50.910;-1.514;2023-12-29T08:03:14;16.27;;;1.55;;
47958;SDS011;33718;50.910;-1.514;2023-12-29T08:05:16;36.00;;;2.85;;
47958;SDS011;33718;50.910;-1.514;2023-12-29T08:07:18;26.45;;;2.22;;
47958;SDS011;33718;50.910;-1.514;2023-12-29T08:09:38;16.58;;;2.45;;
47958;SDS011;33718;50.910;-1.514;2023-12-29T08:11:39;32.20;;;2.83;;
47958;SDS011;33718;50.910;-1.514;2023-12-29T08:13:44;16.20;;;1.38;;
47958;SDS011;33718;50.910;-1.514;2023-12-29T08:15:48;24.33;;;2.95;;
47958;SDS011;33718;50.910;-1.514;2023-12-29T08:17:50;23.88;;;2.05;;
47958;SDS011;33718;50.910;-1.514;2023-12-29T08:19:51;22.27;;;2.00;;
47958;SDS011;33718;50.910;-1.514;2023-12-29T08:21:53;24.73;;;2.47;;
47958;SDS011;33718;50.910;-1.514;2023-12-29T08:23:56;32.97;;;4.15;;
47958;SDS011;33718;50.910;-1.514;2023-12-29T08:26:22;17.30;;;1.88;;
47958;SDS011;33718;50.910;-1.514;2023-12-29T08:28:26;15.30;;;2.17;;
47958;SDS011;33718;50.910;-1.514;2023-12-29T08:30:43;22.13;;;2.28;;
47958;SDS011;33718;50.910;-1.514;2023-12-29T08:33:03;26.77;;;5.22;;
47958;SDS011;33718;50.910;-1.514;2023-12-29T08:35:17;21.67;;;1.90;;
47958;SDS011;33718;50.910;-1.514;2023-12-29T08:37:35;22.83;;;2.78;;
47958;SDS011;33718;50.910;-1.514;2023-12-29T08:39:50;33.30;;;2.83;;
47958;SDS011;33718;50.910;-1.514;2023-12-29T08:42:11;11.68;;;3.42;;
47958;SDS011;33718;50.910;-1.514;2023-12-29T08:44:27;23.17;;;2.40;;
47958;SDS011;33718;50.910;-1.514;2023-12-29T08:46:49;23.10;;;2.58;;
47958;SDS011;33718;50.910;-1.514;2023-12-29T08:49:10;17.70;;;2.75;;
47958;SDS011;33718;50.910;-1.514;2023-12-29T08:51:24;26.55;;;3.55;;
47958;SDS011;33718;50.910;-1.514;2023-12-29T08:53:34;35.97;;;4.82;;
47958;SDS011;33718;50.910;-1.514;2023-12-29T08:56:06;27.50;;;2.85;;
47958;SDS011;33718;50.910;-1.514;2023-12-29T08:58:14;24.42;;;3.17;;
47958;SDS011;33718;50.910;-1.514;2023-12-29T09:00:25;27.70;;;2.90;;
47958;SDS011;33718;50.910;-1.514;2023-12-29T09:02:44;29.45;;;3.50;;
47958;SDS011;33718;50.910;-1.514;2023-12-29T09:05:00;20.33;;;3.10;;
47958;SDS011;33718;50.910;-1.514;2023-12-29T09:07:12;22.20;;;3.85;;
47958;SDS011;33718;50.910;-1.514;2023-12-29T09:09:29;21.55;;;2.30;;
47958;SDS011;33718;50.910;-1.514;2023-12-29T09:11:45;25.80;;;3.08;;
47958;SDS011;33718;50.910;-1.514;2023-12-29T09:13:47;22.73;;;3.03;;
47958;SDS011;33718;50.910;-1.514;2023-12-29T09:15:49;19.20;;;2.15;;
47958;SDS011;33718;50.910;-1.514;2023-12-29T09:17:50;28.58;;;3.67;;
47958;SDS011;33718;50.910;-1.514;2023-12-29T09:19:52;24.83;;;2.67;;
47958;SDS011;33718;50.910;-1.514;2023-12-29T09:22:07;23.88;;;3.65;;
47958;SDS011;33718;50.910;-1.514;2023-12-29T09:24:08;29.27;;;2.60;;
47958;SDS011;33718;50.910;-1.514;2023-12-29T09:26:10;23.50;;;3.22;;
47958;SDS011;33718;50.910;-1.514;2023-12-29T09:28:11;28.73;;;3.50;;
47958;SDS011;33718;50.910;-1.514;2023-12-29T09:30:13;10.07;;;1.88;;
47958;SDS011;33718;50.910;-1.514;2023-12-29T09:32:34;30.17;;;2.70;;
47958;SDS011;33718;50.910;-1.514;2023-12-29T09:34:35;19.75;;;2.63;;
47958;SDS011;33718;50.910;-1.514;2023-12-29T09:36:37;18.13;;;2.70;;
47958;SDS011;33718;50.910;-1.514;2023-12-29T09:38:39;17.50;;;1.75;;
47958;SDS011;33718;50.910;-1.514;2023-12-29T09:40:40;17.20;;;2.00;;
47958;SDS011;33718;50.910;-1.514;2023-12-29T09:42:42;12.63;;;1.75;;
47958;SDS011;33718;50.910;-1.514;2023-12-29T09:44:44;13.77;;;1.45;;
47958;SDS011;33718;50.910;-1.514;2023-12-29T09:46:54;9.67;;;2.07;;
47958;SDS011;33718;50.910;-1.514;2023-12-29T09:48:56;10.48;;;1.30;;
47958;SDS011;33718;50.910;-1.514;2023-12-29T09:51:18;17.73;;;1.90;;
47958;SDS011;33718;50.910;-1.514;2023-12-29T09:53:23;11.07;;;1.27;;
47958;SDS011;33718;50.910;-1.514;2023-12-29T09:55:25;12.85;;;1.33;;
47958;SDS011;33718;50.910;-1.514;2023-12-29T09:57:47;14.48;;;1.48;;
47958;SDS011;33718;50.910;-1.514;2023-12-29T09:59:50;14.60;;;1.85;;
47958;SDS011;33718;50.910;-1.514;2023-12-29T10:01:55;11.55;;;1.10;;
47958;SDS011;33718;50.910;-1.514;2023-12-29T10:03:57;8.23;;;1.15;;
47958;SDS011;33718;50.910;-1.514;2023-12-29T10:06:20;5.75;;;0.95;;
47958;SDS011;33718;50.910;-1.514;2023-12-29T10:08:24;16.38;;;1.45;;
47958;SDS011;33718;50.910;-1.514;2023-12-29T10:10:26;12.27;;;1.58;;
47958;SDS011;33718;50.910;-1.514;2023-12-29T10:12:28;11.75;;;1.20;;
47958;SDS011;33718;50.910;-1.514;2023-12-29T10:14:31;8.00;;;1.20;;
47958;SDS011;33718;50.910;-1.514;2023-12-29T10:16:41;6.85;;;0.95;;
47958;SDS011;33718;50.910;-1.514;2023-12-29T10:18:45;14.40;;;1.42;;
47958;SDS011;33718;50.910;-1.514;2023-12-29T10:23:10;4.50;;;1.00;;
47958;SDS011;33718;50.910;-1.514;2023-12-29T10:25:14;5.75;;;1.23;;
47958;SDS011;33718;50.910;-1.514;2023-12-29T10:27:16;6.35;;;1.70;;
47958;SDS011;33718;50.910;-1.514;2023-12-29T10:29:18;7.10;;;1.00;;
47958;SDS011;33718;50.910;-1.514;2023-12-29T10:31:22;11.60;;;1.50;;
47958;SDS011;33718;50.910;-1.514;2023-12-29T10:33:24;6.53;;;1.20;;
47958;SDS011;33718;50.910;-1.514;2023-12-29T10:35:26;10.95;;;1.42;;
47958;SDS011;33718;50.910;-1.514;2023-12-29T10:37:29;10.75;;;1.08;;
47958;SDS011;33718;50.910;-1.514;2023-12-29T10:39:30;11.18;;;1.63;;
47958;SDS011;33718;50.910;-1.514;2023-12-29T10:41:32;6.22;;;1.00;;
47958;SDS011;33718;50.910;-1.514;2023-12-29T10:43:34;9.43;;;1.20;;
47958;SDS011;33718;50.910;-1.514;2023-12-29T10:45:35;9.95;;;1.33;;
47958;SDS011;33718;50.910;-1.514;2023-12-29T10:47:43;15.57;;;2.05;;
47958;SDS011;33718;50.910;-1.514;2023-12-29T10:49:45;15.63;;;2.08;;
47958;SDS011;33718;50.910;-1.514;2023-12-29T10:51:46;12.73;;;1.30;;
47958;SDS011;33718;50.910;-1.514;2023-12-29T10:53:54;16.08;;;3.28;;
47958;SDS011;33718;50.910;-1.514;2023-12-29T10:55:56;10.30;;;1.45;;
47958;SDS011;33718;50.910;-1.514;2023-12-29T10:57:59;36.70;;;18.02;;
47958;SDS011;33718;50.910;-1.514;2023-12-29T11:00:20;20.45;;;9.48;;
47958;SDS011;33718;50.910;-1.514;2023-12-29T11:02:30;12.05;;;6.20;;
47958;SDS011;33718;50.910;-1.514;2023-12-29T11:04:32;16.88;;;4.35;;
47958;SDS011;33718;50.910;-1.514;2023-12-29T11:06:43;17.50;;;3.08;;
47958;SDS011;33718;50.910;-1.514;2023-12-29T11:08:48;11.23;;;1.83;;
47958;SDS011;33718;50.910;-1.514;2023-12-29T11:10:50;11.00;;;1.67;;
47958;SDS011;33718;50.910;-1.514;2023-12-29T11:12:51;11.73;;;3.92;;
47958;SDS011;33718;50.910;-1.514;2023-12-29T11:14:53;20.33;;;10.90;;
47958;SDS011;33718;50.910;-1.514;2023-12-29T11:16:55;19.45;;;9.80;;
47958;SDS011;33718;50.910;-1.514;2023-12-29T11:19:00;29.58;;;8.85;;
47958;SDS011;33718;50.910;-1.514;2023-12-29T11:21:03;26.48;;;10.82;;
47958;SDS011;33718;50.910;-1.514;2023-12-29T11:23:06;12.93;;;5.85;;
47958;SDS011;33718;50.910;-1.514;2023-12-29T11:25:09;8.45;;;1.73;;
47958;SDS011;33718;50.910;-1.514;2023-12-29T11:27:11;10.40;;;2.08;;
47958;SDS011;33718;50.910;-1.514;2023-12-29T11:29:16;8.43;;;1.45;;
47958;SDS011;33718;50.910;-1.514;2023-12-29T11:31:26;8.57;;;1.98;;
47958;SDS011;33718;50.910;-1.514;2023-12-29T11:33:34;10.43;;;2.08;;
47958;SDS011;33718;50.910;-1.514;2023-12-29T11:35:45;6.43;;;1.67;;
47958;SDS011;33718;50.910;-1.514;2023-12-29T11:40:49;15.02;;;9.20;;
47958;SDS011;33718;50.910;-1.514;2023-12-29T11:42:55;3.90;;;2.17;;
47958;SDS011;33718;50.910;-1.514;2023-12-29T11:47:37;6.45;;;2.55;;
47958;SDS011;33718;50.910;-1.514;2023-12-29T11:50:08;3.25;;;1.95;;
47958;SDS011;33718;50.910;-1.514;2023-12-29T11:52:32;8.65;;;1.70;;
47958;SDS011;33718;50.910;-1.514;2023-12-29T11:54:41;7.15;;;1.65;;
47958;SDS011;33718;50.910;-1.514;2023-12-29T11:56:56;3.45;;;1.20;;
47958;SDS011;33718;50.910;-1.514;2023-12-29T11:59:24;2.65;;;1.23;;
47958;SDS011;33718;50.910;-1.514;2023-12-29T12:01:34;7.38;;;1.30;;
47958;SDS011;33718;50.910;-1.514;2023-12-29T12:03:46;5.22;;;1.10;;
47958;SDS011;33718;50.910;-1.514;2023-12-29T12:05:51;13.73;;;5.28;;
47958;SDS011;33718;50.910;-1.514;2023-12-29T12:08:02;9.82;;;1.70;;
47958;SDS011;33718;50.910;-1.514;2023-12-29T12:12:40;12.13;;;1.58;;
47958;SDS011;33718;50.910;-1.514;2023-12-29T12:14:52;7.68;;;1.77;;
47958;SDS011;33718;50.910;-1.514;2023-12-29T12:17:05;7.20;;;1.98;;
47958;SDS011;33718;50.910;-1.514;2023-12-29T12:19:14;11.32;;;5.68;;
47958;SDS011;33718;50.910;-1.514;2023-12-29T12:21:17;10.80;;;4.57;;
47958;SDS011;33718;50.910;-1.514;2023-12-29T12:23:19;9.73;;;3.42;;
47958;SDS011;33718;50.910;-1.514;2023-12-29T12:25:21;5.32;;;2.35;;
47958;SDS011;33718;50.910;-1.514;2023-12-29T12:27:24;6.03;;;2.08;;
47958;SDS011;33718;50.910;-1.514;2023-12-29T12:29:27;7.15;;;1.17;;
47958;SDS011;33718;50.910;-1.514;2023-12-29T12:31:29;6.43;;;1.55;;
47958;SDS011;33718;50.910;-1.514;2023-12-29T12:33:31;9.65;;;1.92;;
47958;SDS011;33718;50.910;-1.514;2023-12-29T12:35:33;9.75;;;3.05;;